sensor_id;sensor_type;location;lat;lon;timestamp;pressure;altitude;pressure_sealevel;temperature;humidity
68807;BME280;55800;54.272;18.558;2023-04-27T00:00:41;100846.41;;;4.81;57.66
68807;BME280;55800;54.272;18.558;2023-04-27T00:03:17;100838.41;;;4.84;57.66
68807;BME280;55800;54.272;18.558;2023-04-27T00:05:46;100844.63;;;4.82;57.49
68807;BME280;55800;54.272;18.558;2023-04-27T00:08:16;100848.16;;;4.82;57.36
68807;BME280;55800;54.272;18.558;2023-04-27T00:10:45;100841.13;;;4.81;57.03
68807;BME280;55800;54.272;18.558;2023-04-27T00:13:14;100841.97;;;4.82;57.17
68807;BME280;55800;54.272;18.558;2023-04-27T00:15:42;100846.47;;;4.77;57.66
68807;BME280;55800;54.272;18.558;2023-04-27T00:18:12;100846.50;;;4.73;57.91
68807;BME280;55800;54.272;18.558;2023-04-27T00:20:42;100843.00;;;4.71;57.13
68807;BME280;55800;54.272;18.558;2023-04-27T00:23:11;100841.22;;;4.73;58.29
68807;BME280;55800;54.272;18.558;2023-04-27T00:25:40;100841.28;;;4.70;58.22
68807;BME280;55800;54.272;18.558;2023-04-27T00:28:09;100846.56;;;4.70;58.76
68807;BME280;55800;54.272;18.558;2023-04-27T00:30:38;100843.06;;;4.68;59.66
68807;BME280;55800;54.272;18.558;2023-04-27T00:33:07;100853.69;;;4.65;60.27
68807;BME280;55800;54.272;18.558;2023-04-27T00:35:36;100849.31;;;4.63;60.49
68807;BME280;55800;54.272;18.558;2023-04-27T00:38:07;100846.63;;;4.64;59.83
68807;BME280;55800;54.272;18.558;2023-04-27T00:40:36;100856.41;;;4.61;60.58
68807;BME280;55800;54.272;18.558;2023-04-27T00:43:05;100855.53;;;4.62;60.90
68807;BME280;55800;54.272;18.558;2023-04-27T00:45:35;100855.53;;;4.62;60.88
68807;BME280;55800;54.272;18.558;2023-04-27T00:48:09;100843.19;;;4.59;60.75
68807;BME280;55800;54.272;18.558;2023-04-27T00:50:38;100859.13;;;4.56;61.41
68807;BME280;55800;54.272;18.558;2023-04-27T00:53:09;100852.00;;;4.61;59.21
68807;BME280;55800;54.272;18.558;2023-04-27T00:55:37;100859.09;;;4.59;60.62
68807;BME280;55800;54.272;18.558;2023-04-27T00:58:07;100862.59;;;4.61;61.06
68807;BME280;55800;54.272;18.558;2023-04-27T01:00:37;100854.69;;;4.57;61.00
68807;BME280;55800;54.272;18.558;2023-04-27T01:03:07;100859.16;;;4.55;61.40
68807;BME280;55800;54.272;18.558;2023-04-27T01:05:36;100856.47;;;4.56;61.57
68807;BME280;55800;54.272;18.558;2023-04-27T01:08:09;100862.59;;;4.61;61.15
68807;BME280;55800;54.272;18.558;2023-04-27T01:10:39;100860.03;;;4.55;61.15
68807;BME280;55800;54.272;18.558;2023-04-27T01:13:10;100863.59;;;4.53;61.19
68807;BME280;55800;54.272;18.558;2023-04-27T01:15:39;100863.56;;;4.54;61.73
68807;BME280;55800;54.272;18.558;2023-04-27T01:18:09;100862.63;;;4.58;61.90
68807;BME280;55800;54.272;18.558;2023-04-27T01:20:38;100873.28;;;4.52;62.39
68807;BME280;55800;54.272;18.558;2023-04-27T01:23:13;100869.78;;;4.50;62.55
68807;BME280;55800;54.272;18.558;2023-04-27T01:25:54;100870.69;;;4.51;62.22
68807;BME280;55800;54.272;18.558;2023-04-27T01:28:24;100868.97;;;4.47;61.64
68807;BME280;55800;54.272;18.558;2023-04-27T01:30:53;100868.09;;;4.46;61.86
68807;BME280;55800;54.272;18.558;2023-04-27T01:33:25;100865.44;;;4.46;62.08
68807;BME280;55800;54.272;18.558;2023-04-27T01:35:54;100872.53;;;4.44;61.55
68807;BME280;55800;54.272;18.558;2023-04-27T01:38:23;100875.34;;;4.32;61.86
68807;BME280;55800;54.272;18.558;2023-04-27T01:40:52;100873.53;;;4.34;62.06
68807;BME280;55800;54.272;18.558;2023-04-27T01:43:23;100874.34;;;4.41;61.27
68807;BME280;55800;54.272;18.558;2023-04-27T01:45:53;100877.97;;;4.32;60.41
68807;BME280;55800;54.272;18.558;2023-04-27T01:48:22;100878.97;;;4.22;61.10
68807;BME280;55800;54.272;18.558;2023-04-27T01:50:51;100874.44;;;4.32;60.26
68807;BME280;55800;54.272;18.558;2023-04-27T01:53:20;100878.91;;;4.28;61.29
68807;BME280;55800;54.272;18.558;2023-04-27T01:55:49;100878.06;;;4.26;60.93
68807;BME280;55800;54.272;18.558;2023-04-27T01:58:18;100877.22;;;4.21;60.88
68807;BME280;55800;54.272;18.558;2023-04-27T02:00:49;100882.69;;;4.09;61.29
68807;BME280;55800;54.272;18.558;2023-04-27T02:03:18;100885.41;;;4.00;60.86
68807;BME280;55800;54.272;18.558;2023-04-27T02:05:50;100883.75;;;3.91;59.82
68807;BME280;55800;54.272;18.558;2023-04-27T02:08:19;100880.22;;;3.91;61.09
68807;BME280;55800;54.272;18.558;2023-04-27T02:10:48;100880.91;;;4.08;61.17
68807;BME280;55800;54.272;18.558;2023-04-27T02:13:17;100890.72;;;3.97;61.32
68807;BME280;55800;54.272;18.558;2023-04-27T02:15:46;100884.66;;;3.89;61.05
68807;BME280;55800;54.272;18.558;2023-04-27T02:18:17;100888.13;;;3.92;61.31
68807;BME280;55800;54.272;18.558;2023-04-27T02:20:46;100882.78;;;3.99;61.36
68807;BME280;55800;54.272;18.558;2023-04-27T02:23:15;100883.78;;;3.90;60.84
68807;BME280;55800;54.272;18.558;2023-04-27T02:25:44;100883.69;;;3.97;61.11
68807;BME280;55800;54.272;18.558;2023-04-27T02:28:13;100877.50;;;3.99;60.51
68807;BME280;55800;54.272;18.558;2023-04-27T02:33:51;100881.00;;;3.99;62.13
68807;BME280;55800;54.272;18.558;2023-04-27T02:36:20;100881.94;;;3.95;62.56
68807;BME280;55800;54.272;18.558;2023-04-27T02:38:49;100879.34;;;3.90;63.51
68807;BME280;55800;54.272;18.558;2023-04-27T02:41:18;100886.44;;;3.87;64.07
68807;BME280;55800;54.272;18.558;2023-04-27T02:43:49;100877.59;;;3.89;63.90
68807;BME280;55800;54.272;18.558;2023-04-27T02:46:18;100888.22;;;3.85;63.99
68807;BME280;55800;54.272;18.558;2023-04-27T02:48:48;100876.75;;;3.84;64.64
68807;BME280;55800;54.272;18.558;2023-04-27T02:51:18;100883.81;;;3.84;63.47
68807;BME280;55800;54.272;18.558;2023-04-27T02:53:47;100890.88;;;3.83;64.10
68807;BME280;55800;54.272;18.558;2023-04-27T02:56:16;100890.84;;;3.86;63.38
68807;BME280;55800;54.272;18.558;2023-04-27T02:58:45;100887.31;;;3.87;63.64
68807;BME280;55800;54.272;18.558;2023-04-27T03:01:14;100889.06;;;3.88;63.80
68807;BME280;55800;54.272;18.558;2023-04-27T03:03:45;100897.00;;;3.87;64.69
68807;BME280;55800;54.272;18.558;2023-04-27T03:06:15;100897.91;;;3.84;64.40
68807;BME280;55800;54.272;18.558;2023-04-27T03:08:46;100900.53;;;3.89;63.72
68807;BME280;55800;54.272;18.558;2023-04-27T03:11:15;100897.88;;;3.89;64.14
68807;BME280;55800;54.272;18.558;2023-04-27T03:13:44;100912.00;;;3.86;64.32
68807;BME280;55800;54.272;18.558;2023-04-27T03:16:13;100905.81;;;3.86;63.52
68807;BME280;55800;54.272;18.558;2023-04-27T03:18:42;100911.16;;;3.83;65.24
68807;BME280;55800;54.272;18.558;2023-04-27T03:21:11;100910.28;;;3.82;65.44
68807;BME280;55800;54.272;18.558;2023-04-27T03:23:41;100920.91;;;3.78;65.05
68807;BME280;55800;54.272;18.558;2023-04-27T03:26:11;100920.94;;;3.73;65.82
68807;BME280;55800;54.272;18.558;2023-04-27T03:28:41;100918.25;;;3.78;65.43
68807;BME280;55800;54.272;18.558;2023-04-27T03:31:10;100929.69;;;3.81;64.86
68807;BME280;55800;54.272;18.558;2023-04-27T03:33:40;100912.94;;;3.81;65.35
68807;BME280;55800;54.272;18.558;2023-04-27T03:36:09;100912.06;;;3.80;65.83
68807;BME280;55800;54.272;18.558;2023-04-27T03:38:41;100927.97;;;3.79;66.12
68807;BME280;55800;54.272;18.558;2023-04-27T03:41:12;100926.97;;;3.86;66.40
68807;BME280;55800;54.272;18.558;2023-04-27T03:43:41;100922.59;;;3.85;66.87
68807;BME280;55800;54.272;18.558;2023-04-27T03:46:10;100921.69;;;3.86;66.19
68807;BME280;55800;54.272;18.558;2023-04-27T03:48:40;100923.50;;;3.85;66.23
68807;BME280;55800;54.272;18.558;2023-04-27T03:51:10;100924.31;;;3.89;66.65
68807;BME280;55800;54.272;18.558;2023-04-27T03:53:40;100919.88;;;3.91;66.34
68807;BME280;55800;54.272;18.558;2023-04-27T03:56:08;100926.00;;;3.94;66.67
68807;BME280;55800;54.272;18.558;2023-04-27T03:58:39;100920.66;;;4.02;67.11
68807;BME280;55800;54.272;18.558;2023-04-27T04:01:19;100923.28;;;4.04;67.55
68807;BME280;55800;54.272;18.558;2023-04-27T04:03:49;100928.53;;;4.08;67.35
68807;BME280;55800;54.272;18.558;2023-04-27T04:06:18;100940.00;;;4.09;67.77
68807;BME280;55800;54.272;18.558;2023-04-27T04:08:48;100932.84;;;4.20;67.26
68807;BME280;55800;54.272;18.558;2023-04-27T04:11:17;100934.50;;;4.27;66.19
68807;BME280;55800;54.272;18.558;2023-04-27T04:13:48;100937.06;;;4.34;67.42
68807;BME280;55800;54.272;18.558;2023-04-27T04:16:17;100940.53;;;4.39;67.41
68807;BME280;55800;54.272;18.558;2023-04-27T04:18:46;100942.22;;;4.43;67.81
68807;BME280;55800;54.272;18.558;2023-04-27T04:21:15;100943.03;;;4.51;67.50
68807;BME280;55800;54.272;18.558;2023-04-27T04:23:45;100951.81;;;4.55;67.68
68807;BME280;55800;54.272;18.558;2023-04-27T04:26:14;100941.13;;;4.61;67.68
68807;BME280;55800;54.272;18.558;2023-04-27T04:28:43;100950.78;;;4.68;67.75
68807;BME280;55800;54.272;18.558;2023-04-27T04:31:13;100947.13;;;4.77;66.85
68807;BME280;55800;54.272;18.558;2023-04-27T04:33:45;100947.03;;;4.83;67.26
68807;BME280;55800;54.272;18.558;2023-04-27T04:36:15;100953.13;;;4.89;67.52
68807;BME280;55800;54.272;18.558;2023-04-27T04:38:45;100951.31;;;4.93;68.18
68807;BME280;55800;54.272;18.558;2023-04-27T04:41:15;100944.16;;;4.99;67.78
68807;BME280;55800;54.272;18.558;2023-04-27T04:43:44;100957.31;;;5.07;67.93
68807;BME280;55800;54.272;18.558;2023-04-27T04:46:18;100951.94;;;5.13;67.87
68807;BME280;55800;54.272;18.558;2023-04-27T04:48:50;100948.31;;;5.17;67.81
68807;BME280;55800;54.272;18.558;2023-04-27T04:51:21;100958.81;;;5.26;67.77
68807;BME280;55800;54.272;18.558;2023-04-27T04:53:50;100968.34;;;5.34;67.74
68807;BME280;55800;54.272;18.558;2023-04-27T04:56:19;100969.22;;;5.38;67.69
68807;BME280;55800;54.272;18.558;2023-04-27T04:58:48;100960.25;;;5.45;68.00
68807;BME280;55800;54.272;18.558;2023-04-27T05:01:19;100961.91;;;5.52;67.56
68807;BME280;55800;54.272;18.558;2023-04-27T05:03:48;100975.97;;;5.57;67.71
68807;BME280;55800;54.272;18.558;2023-04-27T05:06:17;100959.84;;;5.69;67.24
68807;BME280;55800;54.272;18.558;2023-04-27T05:08:46;100964.09;;;5.79;66.82
68807;BME280;55800;54.272;18.558;2023-04-27T05:11:15;100956.91;;;5.89;66.80
68807;BME280;55800;54.272;18.558;2023-04-27T05:13:49;100968.19;;;6.01;66.17
68807;BME280;55800;54.272;18.558;2023-04-27T05:16:20;100980.44;;;6.08;66.69
68807;BME280;55800;54.272;18.558;2023-04-27T05:18:49;100981.09;;;6.21;66.46
68807;BME280;55800;54.272;18.558;2023-04-27T05:21:18;100974.66;;;6.32;66.32
68807;BME280;55800;54.272;18.558;2023-04-27T05:23:48;100988.63;;;6.44;65.94
68807;BME280;55800;54.272;18.558;2023-04-27T05:26:17;100980.50;;;6.53;66.02
68807;BME280;55800;54.272;18.558;2023-04-27T05:28:46;100983.81;;;6.62;65.93
68807;BME280;55800;54.272;18.558;2023-04-27T05:31:17;100984.53;;;6.72;65.55
68807;BME280;55800;54.272;18.558;2023-04-27T05:33:47;100989.63;;;6.81;65.43
68807;BME280;55800;54.272;18.558;2023-04-27T05:36:16;100991.13;;;6.94;65.31
68807;BME280;55800;54.272;18.558;2023-04-27T05:38:45;100988.28;;;7.03;65.01
68807;BME280;55800;54.272;18.558;2023-04-27T05:41:14;100981.06;;;7.09;63.61
68807;BME280;55800;54.272;18.558;2023-04-27T05:43:44;100986.19;;;7.17;63.26
68807;BME280;55800;54.272;18.558;2023-04-27T05:46:12;100996.63;;;7.26;62.82
68807;BME280;55800;54.272;18.558;2023-04-27T05:48:42;100993.78;;;7.35;62.50
68807;BME280;55800;54.272;18.558;2023-04-27T05:51:12;100989.09;;;7.46;62.23
68807;BME280;55800;54.272;18.558;2023-04-27T05:53:41;100996.00;;;7.53;61.14
68807;BME280;55800;54.272;18.558;2023-04-27T05:56:10;100997.63;;;7.60;61.40
68807;BME280;55800;54.272;18.558;2023-04-27T05:58:39;100993.06;;;7.65;60.81
68807;BME280;55800;54.272;18.558;2023-04-27T06:01:08;101001.78;;;7.70;60.86
68807;BME280;55800;54.272;18.558;2023-04-27T06:03:37;101002.56;;;7.75;60.30
68807;BME280;55800;54.272;18.558;2023-04-27T06:06:07;100998.97;;;7.78;60.32
68807;BME280;55800;54.272;18.558;2023-04-27T06:08:37;101003.31;;;7.80;60.69
68807;BME280;55800;54.272;18.558;2023-04-27T06:11:07;101003.31;;;7.80;60.45
68807;BME280;55800;54.272;18.558;2023-04-27T06:13:36;101016.66;;;7.79;60.80
68807;BME280;55800;54.272;18.558;2023-04-27T06:16:05;101009.56;;;7.79;60.66
68807;BME280;55800;54.272;18.558;2023-04-27T06:18:34;101007.69;;;7.83;61.00
68807;BME280;55800;54.272;18.558;2023-04-27T06:21:03;101005.81;;;7.88;60.50
68807;BME280;55800;54.272;18.558;2023-04-27T06:23:33;101014.56;;;7.92;60.19
68807;BME280;55800;54.272;18.558;2023-04-27T06:26:04;101011.03;;;7.93;59.63
68807;BME280;55800;54.272;18.558;2023-04-27T06:28:33;101012.84;;;7.91;59.47
68807;BME280;55800;54.272;18.558;2023-04-27T06:31:02;101012.78;;;7.92;59.93
68807;BME280;55800;54.272;18.558;2023-04-27T06:33:31;101007.44;;;7.94;59.93
68807;BME280;55800;54.272;18.558;2023-04-27T06:36:00;101006.47;;;7.96;59.87
68807;BME280;55800;54.272;18.558;2023-04-27T06:38:29;101005.44;;;8.02;59.57
68807;BME280;55800;54.272;18.558;2023-04-27T06:40:58;100999.16;;;8.06;59.12
68807;BME280;55800;54.272;18.558;2023-04-27T06:43:29;101002.72;;;8.05;59.00
68807;BME280;55800;54.272;18.558;2023-04-27T06:45:59;101003.53;;;8.07;58.77
68807;BME280;55800;54.272;18.558;2023-04-27T06:48:28;100991.16;;;8.06;58.77
68807;BME280;55800;54.272;18.558;2023-04-27T06:50:58;101008.03;;;8.05;58.61
68807;BME280;55800;54.272;18.558;2023-04-27T06:53:27;101002.66;;;8.06;58.68
68807;BME280;55800;54.272;18.558;2023-04-27T06:55:56;101008.00;;;8.06;58.39
68807;BME280;55800;54.272;18.558;2023-04-27T06:58:25;101002.59;;;8.09;58.18
68807;BME280;55800;54.272;18.558;2023-04-27T07:00:55;100995.50;;;8.08;58.28
68807;BME280;55800;54.272;18.558;2023-04-27T07:03:25;101004.22;;;8.15;58.22
68807;BME280;55800;54.272;18.558;2023-04-27T07:05:54;101010.31;;;8.20;57.99
68807;BME280;55800;54.272;18.558;2023-04-27T07:08:24;101009.28;;;8.27;57.71
68807;BME280;55800;54.272;18.558;2023-04-27T07:10:52;101010.13;;;8.27;57.36
68807;BME280;55800;54.272;18.558;2023-04-27T07:13:22;101015.44;;;8.29;57.29
68807;BME280;55800;54.272;18.558;2023-04-27T07:15:56;101013.63;;;8.29;56.94
68807;BME280;55800;54.272;18.558;2023-04-27T07:18:25;101018.81;;;8.35;56.94
68807;BME280;55800;54.272;18.558;2023-04-27T07:20:55;101022.22;;;8.40;56.39
68807;BME280;55800;54.272;18.558;2023-04-27T07:23:25;101022.31;;;8.37;56.50
68807;BME280;55800;54.272;18.558;2023-04-27T07:25:54;101017.72;;;8.42;56.49
68807;BME280;55800;54.272;18.558;2023-04-27T07:28:24;101021.22;;;8.44;56.14
68807;BME280;55800;54.272;18.558;2023-04-27T07:30:53;101013.22;;;8.44;55.80
68807;BME280;55800;54.272;18.558;2023-04-27T07:33:23;101021.09;;;8.49;55.82
68807;BME280;55800;54.272;18.558;2023-04-27T07:35:53;101018.09;;;8.61;55.72
68807;BME280;55800;54.272;18.558;2023-04-27T07:38:23;101007.13;;;8.73;55.58
68807;BME280;55800;54.272;18.558;2023-04-27T07:40:52;101013.09;;;8.81;55.41
68807;BME280;55800;54.272;18.558;2023-04-27T07:43:21;101009.38;;;8.87;54.49
68807;BME280;55800;54.272;18.558;2023-04-27T07:45:52;101013.66;;;8.92;54.23
68807;BME280;55800;54.272;18.558;2023-04-27T07:48:21;101007.28;;;8.98;54.00
68807;BME280;55800;54.272;18.558;2023-04-27T07:50:52;101015.97;;;9.04;54.53
68807;BME280;55800;54.272;18.558;2023-04-27T07:53:22;101014.81;;;9.13;53.46
68807;BME280;55800;54.272;18.558;2023-04-27T07:55:50;101010.31;;;9.15;51.76
68807;BME280;55800;54.272;18.558;2023-04-27T07:58:19;101015.53;;;9.19;52.26
68807;BME280;55800;54.272;18.558;2023-04-27T08:00:48;101014.38;;;9.28;52.81
68807;BME280;55800;54.272;18.558;2023-04-27T08:03:18;101017.69;;;9.36;51.50
68807;BME280;55800;54.272;18.558;2023-04-27T08:05:49;101027.59;;;9.32;51.25
68807;BME280;55800;54.272;18.558;2023-04-27T08:08:20;101023.44;;;9.22;52.00
68807;BME280;55800;54.272;18.558;2023-04-27T08:10:49;101038.53;;;9.23;53.00
68807;BME280;55800;54.272;18.558;2023-04-27T08:13:18;101041.25;;;9.22;53.03
68807;BME280;55800;54.272;18.558;2023-04-27T08:15:49;101032.34;;;9.21;53.24
68807;BME280;55800;54.272;18.558;2023-04-27T08:18:21;101036.91;;;9.18;53.10
68807;BME280;55800;54.272;18.558;2023-04-27T08:20:50;101042.06;;;9.24;53.35
68807;BME280;55800;54.272;18.558;2023-04-27T08:23:21;101033.88;;;9.30;53.08
68807;BME280;55800;54.272;18.558;2023-04-27T08:25:50;101045.25;;;9.36;53.45
68807;BME280;55800;54.272;18.558;2023-04-27T08:28:19;101042.25;;;9.47;52.85
68807;BME280;55800;54.272;18.558;2023-04-27T08:30:49;101028.91;;;9.47;50.76
68807;BME280;55800;54.272;18.558;2023-04-27T08:33:18;101042.94;;;9.54;50.97
68807;BME280;55800;54.272;18.558;2023-04-27T08:35:47;101041.09;;;9.56;49.70
68807;BME280;55800;54.272;18.558;2023-04-27T08:38:16;101042.94;;;9.54;49.30
68807;BME280;55800;54.272;18.558;2023-04-27T08:40:47;101033.09;;;9.56;49.73
68807;BME280;55800;54.272;18.558;2023-04-27T08:43:16;101041.22;;;9.51;48.78
68807;BME280;55800;54.272;18.558;2023-04-27T08:45:47;101046.50;;;9.53;48.50
68807;BME280;55800;54.272;18.558;2023-04-27T08:48:16;101035.63;;;9.60;49.30
68807;BME280;55800;54.272;18.558;2023-04-27T08:50:47;101048.66;;;9.69;48.40
68807;BME280;55800;54.272;18.558;2023-04-27T08:53:19;101043.03;;;9.78;48.58
68807;BME280;55800;54.272;18.558;2023-04-27T08:55:50;101040.13;;;9.86;49.27
68807;BME280;55800;54.272;18.558;2023-04-27T08:58:20;101036.22;;;9.96;47.95
68807;BME280;55800;54.272;18.558;2023-04-27T09:00:48;101045.69;;;10.06;48.22
68807;BME280;55800;54.272;18.558;2023-04-27T09:03:23;101043.66;;;10.14;47.67
68807;BME280;55800;54.272;18.558;2023-04-27T09:05:52;101049.13;;;10.11;47.54
68807;BME280;55800;54.272;18.558;2023-04-27T09:08:42;101046.44;;;10.11;47.45
68807;BME280;55800;54.272;18.558;2023-04-27T09:11:13;101039.13;;;10.16;48.06
68807;BME280;55800;54.272;18.558;2023-04-27T09:13:42;101036.97;;;10.27;47.21
68807;BME280;55800;54.272;18.558;2023-04-27T09:16:12;101035.03;;;10.32;47.83
68807;BME280;55800;54.272;18.558;2023-04-27T09:18:42;101040.38;;;10.32;46.91
68807;BME280;55800;54.272;18.558;2023-04-27T09:21:20;101038.53;;;10.34;46.90
68807;BME280;55800;54.272;18.558;2023-04-27T09:23:49;101031.13;;;10.42;47.47
68807;BME280;55800;54.272;18.558;2023-04-27T09:26:20;101035.28;;;10.51;47.00
68807;BME280;55800;54.272;18.558;2023-04-27T09:28:51;101026.88;;;10.61;47.85
68807;BME280;55800;54.272;18.558;2023-04-27T09:31:21;101034.50;;;10.72;46.34
68807;BME280;55800;54.272;18.558;2023-04-27T09:33:53;101034.19;;;10.81;45.85
68807;BME280;55800;54.272;18.558;2023-04-27T09:36:22;101027.56;;;10.91;46.05
68807;BME280;55800;54.272;18.558;2023-04-27T09:38:52;101031.81;;;10.96;45.62
68807;BME280;55800;54.272;18.558;2023-04-27T09:41:23;101024.44;;;11.03;45.56
68807;BME280;55800;54.272;18.558;2023-04-27T09:43:53;101035.75;;;11.11;44.91
68807;BME280;55800;54.272;18.558;2023-04-27T09:46:24;101032.75;;;11.19;45.25
68807;BME280;55800;54.272;18.558;2023-04-27T09:48:54;101026.94;;;11.08;44.04
68807;BME280;55800;54.272;18.558;2023-04-27T09:51:23;101030.56;;;11.07;44.43
68807;BME280;55800;54.272;18.558;2023-04-27T09:53:53;101036.81;;;11.06;44.89
68807;BME280;55800;54.272;18.558;2023-04-27T09:56:26;101048.63;;;11.00;44.74
68807;BME280;55800;54.272;18.558;2023-04-27T10:01:46;101062.66;;;10.57;46.50
68807;BME280;55800;54.272;18.558;2023-04-27T10:04:29;101064.75;;;10.49;47.49
68807;BME280;55800;54.272;18.558;2023-04-27T10:07:03;101071.22;;;10.42;48.38
68807;BME280;55800;54.272;18.558;2023-04-27T10:09:34;101070.47;;;10.37;48.23
68807;BME280;55800;54.272;18.558;2023-04-27T10:12:15;101071.31;;;10.39;47.95
68807;BME280;55800;54.272;18.558;2023-04-27T10:14:48;101074.19;;;10.33;48.51
68807;BME280;55800;54.272;18.558;2023-04-27T10:17:19;101075.13;;;10.32;48.58
68807;BME280;55800;54.272;18.558;2023-04-27T10:19:57;101088.50;;;10.32;49.86
68807;BME280;55800;54.272;18.558;2023-04-27T10:22:36;101109.25;;;10.24;50.41
68807;BME280;55800;54.272;18.558;2023-04-27T10:25:16;101102.34;;;10.17;50.95
68807;BME280;55800;54.272;18.558;2023-04-27T10:27:50;101112.22;;;10.15;51.15
68807;BME280;55800;54.272;18.558;2023-04-27T10:30:20;101122.59;;;9.96;51.05
68807;BME280;55800;54.272;18.558;2023-04-27T10:32:51;101121.53;;;9.73;51.96
68807;BME280;55800;54.272;18.558;2023-04-27T10:35:20;101122.75;;;9.63;51.37
68807;BME280;55800;54.272;18.558;2023-04-27T10:37:49;101098.03;;;9.56;50.55
68807;BME280;55800;54.272;18.558;2023-04-27T10:40:20;101096.50;;;9.48;48.36
68807;BME280;55800;54.272;18.558;2023-04-27T10:42:50;101111.69;;;9.46;48.15
68807;BME280;55800;54.272;18.558;2023-04-27T10:45:25;101111.19;;;9.31;48.31
68807;BME280;55800;54.272;18.558;2023-04-27T10:47:58;101106.94;;;9.26;48.98
68807;BME280;55800;54.272;18.558;2023-04-27T10:50:28;101105.97;;;9.28;49.90
68807;BME280;55800;54.272;18.558;2023-04-27T10:52:58;101104.91;;;9.34;50.92
68807;BME280;55800;54.272;18.558;2023-04-27T10:55:29;101101.22;;;9.38;50.63
68807;BME280;55800;54.272;18.558;2023-04-27T10:58:00;101107.19;;;9.48;50.15
68807;BME280;55800;54.272;18.558;2023-04-27T11:00:30;101102.81;;;9.45;50.27
68807;BME280;55800;54.272;18.558;2023-04-27T11:03:09;101108.72;;;9.55;50.41
68807;BME280;55800;54.272;18.558;2023-04-27T11:05:39;101099.63;;;9.62;50.08
68807;BME280;55800;54.272;18.558;2023-04-27T11:08:10;101093.38;;;9.63;50.12
68807;BME280;55800;54.272;18.558;2023-04-27T11:10:41;101093.91;;;9.74;49.51
68807;BME280;55800;54.272;18.558;2023-04-27T11:13:12;101098.53;;;9.69;50.21
68807;BME280;55800;54.272;18.558;2023-04-27T11:15:46;101098.22;;;9.78;50.13
68807;BME280;55800;54.272;18.558;2023-04-27T11:18:16;101104.06;;;9.90;50.12
68807;BME280;55800;54.272;18.558;2023-04-27T11:20:47;101096.72;;;9.97;50.12
68807;BME280;55800;54.272;18.558;2023-04-27T11:23:23;101094.47;;;10.12;50.22
68807;BME280;55800;54.272;18.558;2023-04-27T11:25:53;101089.53;;;10.28;49.86
68807;BME280;55800;54.272;18.558;2023-04-27T11:28:24;101089.19;;;10.37;50.44
68807;BME280;55800;54.272;18.558;2023-04-27T11:30:57;101091.56;;;10.46;49.67
68807;BME280;55800;54.272;18.558;2023-04-27T11:33:26;101087.63;;;10.56;50.49
68807;BME280;55800;54.272;18.558;2023-04-27T11:35:56;101092.69;;;10.65;49.92
68807;BME280;55800;54.272;18.558;2023-04-27T11:38:25;101097.81;;;10.71;50.01
68807;BME280;55800;54.272;18.558;2023-04-27T11:40:58;101086.91;;;10.77;49.82
68807;BME280;55800;54.272;18.558;2023-04-27T11:43:29;101105.31;;;10.86;50.36
68807;BME280;55800;54.272;18.558;2023-04-27T11:46:01;101090.56;;;10.99;50.42
68807;BME280;55800;54.272;18.558;2023-04-27T11:48:30;101094.66;;;11.10;50.36
68807;BME280;55800;54.272;18.558;2023-04-27T11:51:00;101086.63;;;11.10;48.31
68807;BME280;55800;54.272;18.558;2023-04-27T11:53:29;101091.06;;;11.11;46.49
68807;BME280;55800;54.272;18.558;2023-04-27T11:55:59;101100.34;;;11.01;44.57
68807;BME280;55800;54.272;18.558;2023-04-27T11:58:31;101096.81;;;10.98;45.03
68807;BME280;55800;54.272;18.558;2023-04-27T12:01:00;101094.28;;;10.95;44.30
68807;BME280;55800;54.272;18.558;2023-04-27T12:03:30;101104.47;;;10.84;44.50
68807;BME280;55800;54.272;18.558;2023-04-27T12:06:00;101098.81;;;10.93;45.57
68807;BME280;55800;54.272;18.558;2023-04-27T12:08:33;101098.69;;;10.96;46.54
68807;BME280;55800;54.272;18.558;2023-04-27T12:11:02;101108.19;;;11.05;46.39
68807;BME280;55800;54.272;18.558;2023-04-27T12:13:33;101107.88;;;11.14;45.02
68807;BME280;55800;54.272;18.558;2023-04-27T12:16:03;101101.41;;;11.20;45.01
68807;BME280;55800;54.272;18.558;2023-04-27T12:18:32;101103.06;;;11.24;43.22
68807;BME280;55800;54.272;18.558;2023-04-27T12:21:02;101103.81;;;11.27;43.71
68807;BME280;55800;54.272;18.558;2023-04-27T12:23:35;101107.06;;;11.35;43.87
68807;BME280;55800;54.272;18.558;2023-04-27T12:26:04;101103.13;;;11.45;43.94
68807;BME280;55800;54.272;18.558;2023-04-27T12:28:35;101105.59;;;11.51;43.39
68807;BME280;55800;54.272;18.558;2023-04-27T12:31:04;101106.44;;;11.52;42.85
68807;BME280;55800;54.272;18.558;2023-04-27T12:33:33;101109.25;;;11.49;42.17
68807;BME280;55800;54.272;18.558;2023-04-27T12:36:03;101113.66;;;11.50;42.49
68807;BME280;55800;54.272;18.558;2023-04-27T12:38:32;101117.28;;;11.49;42.13
68807;BME280;55800;54.272;18.558;2023-04-27T12:41:01;101115.25;;;11.55;42.99
68807;BME280;55800;54.272;18.558;2023-04-27T12:43:30;101122.00;;;11.65;42.55
68807;BME280;55800;54.272;18.558;2023-04-27T12:46:01;101123.13;;;11.60;41.53
68807;BME280;55800;54.272;18.558;2023-04-27T12:48:30;101117.75;;;11.60;41.70
68807;BME280;55800;54.272;18.558;2023-04-27T12:51:00;101126.25;;;11.71;42.55
68807;BME280;55800;54.272;18.558;2023-04-27T12:53:29;101115.19;;;11.80;41.86
68807;BME280;55800;54.272;18.558;2023-04-27T12:56:00;101116.81;;;11.84;42.45
68807;BME280;55800;54.272;18.558;2023-04-27T12:58:30;101117.47;;;11.91;42.37
68807;BME280;55800;54.272;18.558;2023-04-27T13:01:01;101116.41;;;11.95;42.91
68807;BME280;55800;54.272;18.558;2023-04-27T13:03:30;101116.22;;;11.99;42.32
68807;BME280;55800;54.272;18.558;2023-04-27T13:05:59;101122.91;;;12.11;42.44
68807;BME280;55800;54.272;18.558;2023-04-27T13:08:28;101134.19;;;12.19;41.26